Time;durP1;ratioP1;P1;durP2;ratioP2;P2;SDS_P1;SDS_P2;PMS_P1;PMS_P2;Temp;Humidity;BMP_temperature;BMP_pressure;BME280_temperature;BME280_humidity;BME280_pressure;Samples;Min_cycle;Max_cycle;Signal;HPM_P1;HPM_P2
2023/05/02 00:01:15;;;;;;;6.73;4.40;;;12.90;99.90;;;;;;5031950;28;20458;-73
2023/05/02 00:04:01;;;;;;;15.43;4.40;;;12.90;99.90;;;;;;5033214;28;20423;-73
2023/05/02 00:06:47;;;;;;;5.17;4.20;;;12.90;99.90;;;;;;5026332;28;20476;-73
2023/05/02 00:09:32;;;;;;;5.00;4.20;;;12.90;99.90;;;;;;5030432;28;20504;-73
2023/05/02 00:12:18;;;;;;;5.10;4.30;;;12.90;99.90;;;;;;5030560;28;20462;-73
2023/05/02 00:15:04;;;;;;;8.80;3.83;;;13.00;99.90;;;;;;5028007;28;20462;-73
2023/05/02 00:17:49;;;;;;;5.13;4.43;;;12.90;99.90;;;;;;5030853;28;20473;-73
2023/05/02 00:20:36;;;;;;;4.00;3.60;;;12.90;99.90;;;;;;5030859;28;20584;-73
2023/05/02 00:23:22;;;;;;;5.60;4.30;;;12.80;99.90;;;;;;5027121;28;20496;-73
2023/05/02 00:26:08;;;;;;;4.70;4.27;;;12.70;99.90;;;;;;5024719;28;20965;-73
2023/05/02 00:28:54;;;;;;;5.27;3.90;;;12.70;99.90;;;;;;5031036;28;20538;-73
2023/05/02 00:31:40;;;;;;;6.33;4.23;;;12.60;99.90;;;;;;5029694;28;20420;-73
2023/05/02 00:34:30;;;;;;;4.47;4.03;;;12.50;99.90;;;;;;5024757;28;20447;-73
2023/05/02 00:37:16;;;;;;;3.93;3.53;;;12.50;99.90;;;;;;5029905;28;20492;-73
2023/05/02 00:40:02;;;;;;;11.37;4.77;;;12.40;99.90;;;;;;5029334;28;20548;-73
2023/05/02 00:42:47;;;;;;;7.83;4.60;;;12.20;99.90;;;;;;5026174;28;20568;-73
2023/05/02 00:45:33;;;;;;;7.73;4.50;;;12.00;99.90;;;;;;5024888;28;20416;-73
2023/05/02 00:48:20;;;;;;;5.60;4.67;;;12.00;99.90;;;;;;5030776;28;20438;-73
2023/05/02 00:51:07;;;;;;;5.40;3.93;;;12.10;99.90;;;;;;5029724;28;20445;-73
2023/05/02 00:53:54;;;;;;;7.13;4.93;;;12.00;99.90;;;;;;5028451;28;20978;-73
2023/05/02 00:56:39;;;;;;;6.10;4.80;;;11.80;99.90;;;;;;5029409;28;20484;-73
2023/05/02 00:59:25;;;;;;;8.30;4.90;;;11.70;99.90;;;;;;5031050;28;20538;-73
2023/05/02 01:02:25;;;;;;;6.73;4.50;;;11.70;99.90;;;;;;5027512;28;20503;-73
2023/05/02 01:05:15;;;;;;;8.40;4.87;;;11.70;99.90;;;;;;5030480;28;20460;-73
2023/05/02 01:08:13;;;;;;;6.20;4.67;;;11.70;99.90;;;;;;5030938;28;20479;-73
2023/05/02 01:11:05;;;;;;;5.37;4.80;;;11.60;99.90;;;;;;5026139;28;20412;-73
2023/05/02 01:13:53;;;;;;;6.63;4.57;;;11.50;99.90;;;;;;5021643;28;20476;-73
2023/05/02 01:16:39;;;;;;;7.23;4.17;;;11.60;99.90;;;;;;5023493;28;20484;-73
2023/05/02 01:19:31;;;;;;;12.17;4.83;;;11.70;99.90;;;;;;5030622;28;20462;-73
2023/05/02 01:22:18;;;;;;;5.30;4.70;;;11.70;99.90;;;;;;5026071;28;20449;-73
2023/05/02 01:25:14;;;;;;;10.20;5.90;;;11.60;99.90;;;;;;5026043;28;20426;-73
2023/05/02 01:28:14;;;;;;;8.40;5.23;;;11.40;99.90;;;;;;5024462;28;20467;-73
2023/05/02 01:31:03;;;;;;;6.23;5.43;;;11.30;99.90;;;;;;5026330;28;20449;-73
2023/05/02 01:33:48;;;;;;;8.37;4.90;;;11.20;99.90;;;;;;5020940;28;20476;-73
2023/05/02 01:36:36;;;;;;;7.43;5.67;;;11.20;99.90;;;;;;5030047;28;20441;-73
2023/05/02 01:39:23;;;;;;;6.67;5.90;;;11.10;99.90;;;;;;5027053;28;20510;-73
2023/05/02 01:42:11;;;;;;;7.80;5.40;;;11.00;99.90;;;;;;5023948;28;20767;-73
2023/05/02 01:44:59;;;;;;;7.50;5.90;;;11.00;99.90;;;;;;5014682;28;20541;-73
2023/05/02 01:47:47;;;;;;;8.60;5.70;;;11.00;99.90;;;;;;5022307;28;20467;-73
2023/05/02 01:50:33;;;;;;;7.67;5.60;;;11.00;99.90;;;;;;5029004;28;20524;-73
2023/05/02 01:53:21;;;;;;;11.00;6.80;;;10.90;99.90;;;;;;5024737;28;20530;-73
2023/05/02 01:56:07;;;;;;;11.00;6.20;;;10.90;99.90;;;;;;5030421;28;21086;-73
2023/05/02 01:58:53;;;;;;;6.83;6.13;;;11.00;99.90;;;;;;5026792;28;20937;-73
2023/05/02 02:01:42;;;;;;;6.13;5.50;;;11.10;99.90;;;;;;5028656;28;20450;-73
2023/05/02 02:04:30;;;;;;;5.80;5.30;;;11.20;99.90;;;;;;5024642;28;20443;-73
2023/05/02 02:07:15;;;;;;;6.00;5.00;;;11.20;99.90;;;;;;5026597;28;20483;-73
2023/05/02 02:10:01;;;;;;;9.00;6.47;;;11.20;99.90;;;;;;5031086;28;20738;-73
2023/05/02 02:12:52;;;;;;;6.40;5.30;;;11.20;99.90;;;;;;5026481;28;20488;-73
2023/05/02 02:15:40;;;;;;;7.00;5.47;;;11.20;99.90;;;;;;5028771;28;20423;-73
2023/05/02 02:18:27;;;;;;;6.40;5.10;;;11.20;99.90;;;;;;5031360;28;20450;-72
2023/05/02 02:21:18;;;;;;;5.70;4.93;;;11.30;99.90;;;;;;5028190;28;20528;-72
2023/05/02 02:24:06;;;;;;;6.13;4.97;;;11.40;99.90;;;;;;5019646;28;20497;-73
2023/05/02 02:26:51;;;;;;;5.80;4.93;;;11.40;99.90;;;;;;5028282;28;20469;-73
2023/05/02 02:29:37;;;;;;;7.83;5.47;;;11.40;99.90;;;;;;5023610;28;20516;-73
2023/05/02 02:32:23;;;;;;;6.43;4.60;;;11.30;99.90;;;;;;5026365;28;20465;-73
2023/05/02 02:35:10;;;;;;;9.50;5.30;;;11.30;99.90;;;;;;5032668;28;20408;-73
2023/05/02 02:38:10;;;;;;;7.67;5.40;;;11.30;99.90;;;;;;5024560;28;20523;-72
2023/05/02 02:41:01;;;;;;;5.70;5.10;;;11.40;99.90;;;;;;5025954;28;20986;-73
2023/05/02 02:43:57;;;;;;;7.13;4.50;;;11.30;99.90;;;;;;5023728;28;20437;-73
2023/05/02 02:46:50;;;;;;;5.87;4.93;;;11.30;99.90;;;;;;5026499;28;20430;-73
2023/05/02 02:49:44;;;;;;;4.70;4.20;;;11.30;99.90;;;;;;5026983;28;20447;-72
2023/05/02 02:52:40;;;;;;;9.23;5.43;;;11.30;99.90;;;;;;5022246;28;20445;-73
2023/05/02 02:55:36;;;;;;;6.37;4.93;;;11.10;99.90;;;;;;5026935;28;20412;-72
2023/05/02 02:58:31;;;;;;;5.30;4.70;;;11.10;99.90;;;;;;5022518;28;20449;-73
2023/05/02 03:01:20;;;;;;;5.80;5.20;;;10.90;99.90;;;;;;5028887;28;20499;-72
2023/05/02 03:04:07;;;;;;;5.60;5.00;;;10.90;99.90;;;;;;5029085;28;20415;-73
2023/05/02 03:06:53;;;;;;;6.23;5.40;;;10.70;99.90;;;;;;5024125;28;20558;-72
2023/05/02 03:09:42;;;;;;;9.53;6.47;;;10.70;99.90;;;;;;5028555;28;20422;-72
2023/05/02 03:12:29;;;;;;;8.07;6.20;;;10.50;99.90;;;;;;5023291;28;20424;-72
2023/05/02 03:15:30;;;;;;;8.77;6.13;;;10.60;99.90;;;;;;5029276;28;20435;-72
2023/05/02 03:18:15;;;;;;;8.80;6.40;;;10.40;99.90;;;;;;5028372;28;20846;-72
2023/05/02 03:21:01;;;;;;;11.13;6.53;;;10.10;99.90;;;;;;5026325;28;20437;-72
2023/05/02 03:23:46;;;;;;;11.50;7.93;;;10.20;99.90;;;;;;5024874;28;20512;-72
2023/05/02 03:26:32;;;;;;;9.87;7.30;;;10.10;99.90;;;;;;5029988;28;20469;-72
2023/05/02 03:29:19;;;;;;;9.77;5.80;;;10.10;99.90;;;;;;5026237;28;20471;-72
2023/05/02 03:32:05;;;;;;;8.50;6.47;;;10.00;99.90;;;;;;5022596;28;20448;-72
2023/05/02 03:34:51;;;;;;;7.03;5.17;;;9.90;99.90;;;;;;5028792;28;20471;-72
2023/05/02 03:37:36;;;;;;;7.47;6.27;;;10.00;99.90;;;;;;5024879;28;20573;-72
2023/05/02 03:40:22;;;;;;;7.20;6.50;;;9.90;99.90;;;;;;5022238;28;20538;-72
2023/05/02 03:43:07;;;;;;;7.63;6.93;;;9.90;99.90;;;;;;5025307;28;20778;-72
2023/05/02 03:45:54;;;;;;;8.23;6.63;;;10.00;99.90;;;;;;5024822;28;20439;-72
2023/05/02 03:48:39;;;;;;;6.87;6.17;;;9.90;99.90;;;;;;5019532;28;20546;-72
2023/05/02 03:51:25;;;;;;;8.13;7.00;;;9.80;99.90;;;;;;5023719;28;20555;-72
2023/05/02 03:54:11;;;;;;;7.30;6.60;;;9.80;99.90;;;;;;5029773;28;20535;-72
2023/05/02 03:56:57;;;;;;;8.30;7.50;;;9.80;99.90;;;;;;5030945;28;20434;-72
2023/05/02 03:59:44;;;;;;;7.57;6.77;;;9.70;99.90;;;;;;5033304;28;20460;-72
2023/05/02 04:02:31;;;;;;;8.20;7.40;;;9.80;99.90;;;;;;5026134;28;20530;-72
2023/05/02 04:05:17;;;;;;;8.13;7.10;;;9.70;99.90;;;;;;5032308;28;20810;-72
2023/05/02 04:08:02;;;;;;;8.20;7.13;;;9.80;99.90;;;;;;5030653;28;20618;-72
2023/05/02 04:10:50;;;;;;;8.70;7.70;;;9.70;99.90;;;;;;5023667;28;20439;-72
2023/05/02 04:13:35;;;;;;;6.57;5.93;;;9.80;99.90;;;;;;5028136;28;20906;-72
2023/05/02 04:16:21;;;;;;;7.87;7.07;;;9.70;99.90;;;;;;5030764;28;21039;-72
2023/05/02 04:19:08;;;;;;;9.67;7.47;;;9.70;99.90;;;;;;5032343;28;21205;-72
2023/05/02 04:21:53;;;;;;;8.50;6.43;;;9.60;99.90;;;;;;5029094;28;20443;-72
2023/05/02 04:24:39;;;;;;;8.00;7.20;;;9.70;99.90;;;;;;5034923;28;20447;-72
2023/05/02 04:27:24;;;;;;;16.63;8.90;;;9.70;99.90;;;;;;5031182;28;20868;-72
2023/05/02 04:30:10;;;;;;;9.07;7.47;;;9.90;99.90;;;;;;5027349;28;20575;-72
2023/05/02 04:32:56;;;;;;;9.57;8.57;;;9.90;99.90;;;;;;5031199;28;20812;-72
2023/05/02 04:35:43;;;;;;;8.97;7.80;;;9.80;99.90;;;;;;5032179;28;20455;-72
2023/05/02 04:38:29;;;;;;;9.07;7.87;;;9.90;99.90;;;;;;5030475;28;20970;-72
2023/05/02 04:41:15;;;;;;;8.67;7.73;;;10.10;99.90;;;;;;5024925;28;20483;-72
2023/05/02 04:44:00;;;;;;;8.60;7.70;;;10.20;99.90;;;;;;5028672;28;20750;-72
2023/05/02 04:46:46;;;;;;;8.27;7.43;;;10.30;99.90;;;;;;5033371;28;21064;-72
2023/05/02 04:49:32;;;;;;;11.43;8.53;;;10.40;99.90;;;;;;5031735;28;20449;-72
2023/05/02 04:52:18;;;;;;;8.43;7.50;;;10.20;99.90;;;;;;5029518;28;20549;-72
2023/05/02 04:55:04;;;;;;;7.73;6.90;;;10.20;99.90;;;;;;5031624;28;20843;-72
2023/05/02 04:57:50;;;;;;;10.07;8.90;;;10.20;99.90;;;;;;5027316;28;20439;-72
2023/05/02 05:00:36;;;;;;;9.90;8.43;;;10.30;99.90;;;;;;5024148;28;21048;-75
2023/05/02 05:03:21;;;;;;;9.53;8.53;;;10.30;99.90;;;;;;5030386;28;20527;-73
2023/05/02 05:06:07;;;;;;;10.30;8.80;;;10.40;99.90;;;;;;5028614;28;20438;-73
2023/05/02 05:08:54;;;;;;;9.27;8.20;;;10.60;99.90;;;;;;5028211;28;20441;-72
2023/05/02 05:11:41;;;;;;;8.47;7.67;;;10.60;99.90;;;;;;5027081;28;20472;-72
2023/05/02 05:14:27;;;;;;;9.13;7.90;;;10.60;99.90;;;;;;5026493;28;20454;-72
2023/05/02 05:17:13;;;;;;;10.03;8.13;;;10.60;99.90;;;;;;5030597;28;20546;-74
2023/05/02 05:19:58;;;;;;;11.40;8.33;;;10.80;99.90;;;;;;5024018;28;20474;-74
2023/05/02 05:22:43;;;;;;;8.70;7.23;;;10.80;99.90;;;;;;5029129;28;20429;-75
2023/05/02 05:25:31;;;;;;;8.40;7.03;;;10.90;99.90;;;;;;5028776;28;20419;-74
2023/05/02 05:28:17;;;;;;;8.97;8.07;;;11.00;99.90;;;;;;5028221;28;20442;-74
2023/05/02 05:31:06;;;;;;;11.93;8.13;;;11.10;99.90;;;;;;5026761;28;20858;-73
2023/05/02 05:33:51;;;;;;;12.63;8.50;;;11.20;99.90;;;;;;5030002;28;20474;-72
2023/05/02 05:36:37;;;;;;;9.67;8.63;;;11.40;99.90;;;;;;5026896;28;21124;-72
2023/05/02 05:39:24;;;;;;;9.87;8.67;;;11.50;99.90;;;;;;5025022;28;20423;-72
2023/05/02 05:42:11;;;;;;;10.90;8.63;;;11.60;99.90;;;;;;5029103;28;21018;-72
2023/05/02 05:44:56;;;;;;;9.97;8.07;;;11.70;99.90;;;;;;5025881;28;20699;-72
2023/05/02 05:47:41;;;;;;;10.20;9.00;;;11.80;99.90;;;;;;5027937;28;20467;-72
2023/05/02 05:50:27;;;;;;;9.10;8.10;;;11.80;99.90;;;;;;5017553;28;20932;-73
2023/05/02 05:53:13;;;;;;;10.77;8.60;;;11.90;99.90;;;;;;5025185;28;20871;-73
2023/05/02 05:55:58;;;;;;;14.37;8.37;;;11.90;99.90;;;;;;5030991;28;20437;-73
2023/05/02 05:58:45;;;;;;;11.17;8.90;;;12.00;99.90;;;;;;5022740;28;20439;-73
2023/05/02 06:01:31;;;;;;;13.20;9.27;;;12.00;99.90;;;;;;5029203;28;20448;-73
2023/05/02 06:04:16;;;;;;;11.90;9.37;;;12.10;99.90;;;;;;5026879;28;20966;-73
2023/05/02 06:07:01;;;;;;;12.13;10.20;;;12.20;99.90;;;;;;5029787;28;20489;-73
2023/05/02 06:09:47;;;;;;;14.00;10.43;;;12.30;99.90;;;;;;5024985;28;20505;-73
2023/05/02 06:12:32;;;;;;;13.13;11.23;;;12.30;99.90;;;;;;5029362;28;20828;-73
2023/05/02 06:15:19;;;;;;;17.50;15.73;;;12.30;99.90;;;;;;5026373;28;20534;-73
2023/05/02 06:18:04;;;;;;;22.87;19.10;;;12.40;99.90;;;;;;5029262;28;21035;-73
2023/05/02 06:20:50;;;;;;;22.40;19.70;;;12.40;99.90;;;;;;5020325;28;20424;-73
2023/05/02 06:23:36;;;;;;;18.60;15.80;;;12.40;99.90;;;;;;5025986;28;20445;-73
2023/05/02 06:26:21;;;;;;;24.00;20.27;;;12.50;99.90;;;;;;5023577;28;20460;-73
2023/05/02 06:29:06;;;;;;;30.07;25.13;;;12.50;99.90;;;;;;5024830;28;21079;-73
2023/05/02 06:31:56;;;;;;;35.57;27.70;;;12.60;99.90;;;;;;5029198;28;20421;-73
2023/05/02 06:34:42;;;;;;;37.03;30.20;;;12.60;99.90;;;;;;5027535;28;20562;-73
2023/05/02 06:37:27;;;;;;;36.00;27.57;;;12.60;99.90;;;;;;5026395;28;20896;-73
2023/05/02 06:40:13;;;;;;;40.03;30.80;;;12.50;99.90;;;;;;5025308;28;20540;-73
2023/05/02 06:42:59;;;;;;;43.00;29.80;;;12.70;99.90;;;;;;5027830;28;20462;-73
2023/05/02 06:45:44;;;;;;;37.00;29.57;;;12.70;99.90;;;;;;5027480;28;20460;-73
2023/05/02 06:48:31;;;;;;;43.33;30.07;;;12.90;99.90;;;;;;5021407;28;20953;-73
2023/05/02 06:51:18;;;;;;;37.90;29.70;;;13.00;99.90;;;;;;5023205;28;20461;-71
2023/05/02 06:54:03;;;;;;;38.83;31.40;;;13.00;99.90;;;;;;5028001;28;20449;-71
2023/05/02 06:56:49;;;;;;;45.60;32.13;;;13.10;99.90;;;;;;5025937;28;20520;-75
2023/05/02 06:59:34;;;;;;;40.97;29.90;;;13.20;99.90;;;;;;5024918;28;20469;-71
2023/05/02 07:02:21;;;;;;;39.27;31.37;;;13.30;99.90;;;;;;5023269;28;20450;-72
2023/05/02 07:05:08;;;;;;;39.57;29.80;;;13.30;99.90;;;;;;5028275;28;20445;-73
2023/05/02 07:07:53;;;;;;;44.20;29.70;;;13.40;99.90;;;;;;5024956;28;20798;-71
2023/05/02 07:10:39;;;;;;;40.30;31.37;;;13.40;99.90;;;;;;5024409;28;20449;-71
2023/05/02 07:13:24;;;;;;;43.53;31.90;;;13.50;99.90;;;;;;5029653;28;20450;-71
2023/05/02 07:16:10;;;;;;;39.63;29.50;;;13.70;99.90;;;;;;5034259;28;20918;-70
2023/05/02 07:18:56;;;;;;;38.97;30.10;;;13.70;99.90;;;;;;5025239;28;20791;-71
2023/05/02 07:21:42;;;;;;;38.60;30.53;;;13.80;99.90;;;;;;5027374;28;20831;-72
2023/05/02 07:24:28;;;;;;;42.17;30.50;;;13.80;99.90;;;;;;5028643;28;20788;-72
2023/05/02 07:27:14;;;;;;;39.40;30.10;;;14.00;99.90;;;;;;5029947;28;20481;-72
2023/05/02 07:30:00;;;;;;;49.63;30.80;;;14.20;99.90;;;;;;5028197;28;20461;-72
2023/05/02 07:32:45;;;;;;;38.50;29.80;;;14.30;99.90;;;;;;5030324;28;21072;-72
2023/05/02 07:35:30;;;;;;;34.53;27.73;;;14.40;99.90;;;;;;5038361;28;20472;-72
2023/05/02 07:38:18;;;;;;;35.30;27.93;;;14.50;99.90;;;;;;5026231;28;20428;-72
2023/05/02 07:41:03;;;;;;;37.93;28.50;;;14.50;99.90;;;;;;5029081;28;21217;-72
2023/05/02 07:43:48;;;;;;;42.77;30.03;;;14.60;99.90;;;;;;5026931;28;20836;-72
2023/05/02 07:46:34;;;;;;;34.37;27.30;;;14.50;99.90;;;;;;5023949;28;20462;-72
2023/05/02 07:49:19;;;;;;;33.70;26.57;;;14.60;99.90;;;;;;5026085;28;20535;-72
2023/05/02 07:52:05;;;;;;;37.43;28.27;;;14.70;99.90;;;;;;5028731;28;20954;-72
2023/05/02 07:54:52;;;;;;;32.30;26.10;;;14.80;99.90;;;;;;5029450;28;20444;-72
2023/05/02 07:57:37;;;;;;;29.70;23.90;;;14.90;99.90;;;;;;5028662;28;20455;-72
2023/05/02 08:00:23;;;;;;;29.63;24.13;;;15.00;99.90;;;;;;5030529;28;20445;-72
2023/05/02 08:03:08;;;;;;;32.07;25.57;;;15.00;99.90;;;;;;5029382;28;20554;-72
2023/05/02 08:05:54;;;;;;;34.47;25.13;;;15.00;99.90;;;;;;5030802;28;20435;-72
2023/05/02 08:08:39;;;;;;;29.13;22.50;;;15.00;99.90;;;;;;5026646;28;20449;-72
2023/05/02 08:11:26;;;;;;;27.87;21.97;;;14.90;99.90;;;;;;5030969;28;20441;-73
2023/05/02 08:14:11;;;;;;;30.03;21.90;;;14.80;99.90;;;;;;5028000;28;20421;-72
2023/05/02 08:16:57;;;;;;;30.53;22.30;;;14.90;99.90;;;;;;5030548;28;20465;-72
2023/05/02 08:19:42;;;;;;;30.23;22.50;;;14.90;99.90;;;;;;5027038;28;20790;-72
2023/05/02 08:22:28;;;;;;;29.37;21.43;;;15.10;99.90;;;;;;5026980;28;20803;-71
2023/05/02 08:25:13;;;;;;;33.37;22.90;;;15.30;99.90;;;;;;5041746;28;20861;-70
2023/05/02 08:28:00;;;;;;;31.73;23.87;;;15.40;99.90;;;;;;5030181;28;20471;-70
2023/05/02 08:30:45;;;;;;;36.67;25.80;;;15.50;99.90;;;;;;5025723;28;20454;-70
2023/05/02 08:33:31;;;;;;;37.83;27.30;;;15.40;99.90;;;;;;5023964;28;20446;-70
2023/05/02 08:36:18;;;;;;;35.40;27.10;;;15.30;99.90;;;;;;5031522;28;20555;-70
2023/05/02 08:39:03;;;;;;;32.20;25.97;;;15.00;99.90;;;;;;5025559;28;20598;-70
2023/05/02 08:41:48;;;;;;;36.13;28.13;;;15.00;99.90;;;;;;5040508;28;20448;-70
2023/05/02 08:44:36;;;;;;;32.43;25.50;;;15.10;99.90;;;;;;5028872;28;20469;-71
2023/05/02 08:47:23;;;;;;;35.13;26.70;;;15.20;99.90;;;;;;5029412;28;20500;-70
2023/05/02 08:50:10;;;;;;;42.33;27.00;;;15.30;99.90;;;;;;5026071;28;20427;-70
2023/05/02 08:52:56;;;;;;;36.83;26.63;;;15.30;99.90;;;;;;5029798;28;20434;-70
2023/05/02 08:55:42;;;;;;;35.40;25.70;;;15.30;99.90;;;;;;5037091;28;20977;-70
2023/05/02 08:58:29;;;;;;;36.40;25.60;;;15.30;99.90;;;;;;5041580;28;20504;-70
2023/05/02 09:01:17;;;;;;;34.97;25.13;;;15.20;99.90;;;;;;5036858;28;20795;-70
2023/05/02 09:04:03;;;;;;;32.80;23.80;;;15.20;99.90;;;;;;5044397;28;20428;-70
2023/05/02 09:06:49;;;;;;;31.80;23.30;;;15.20;99.90;;;;;;5031302;28;20470;-70
2023/05/02 09:09:34;;;;;;;34.60;24.90;;;15.20;99.90;;;;;;5026676;28;20399;-70
2023/05/02 09:12:25;;;;;;;35.47;25.50;;;15.10;99.90;;;;;;5040677;28;20964;-70
2023/05/02 09:15:12;;;;;;;44.87;25.80;;;15.10;99.90;;;;;;5036216;28;20522;-71
2023/05/02 09:17:59;;;;;;;34.63;25.67;;;15.10;99.90;;;;;;5025143;28;20482;-71
2023/05/02 09:20:45;;;;;;;31.73;22.90;;;15.10;99.90;;;;;;5030343;28;20461;-70
2023/05/02 09:23:41;;;;;;;29.10;22.97;;;15.20;99.90;;;;;;5036634;28;20501;-70
2023/05/02 09:26:30;;;;;;;31.80;22.90;;;15.10;99.90;;;;;;5023065;28;20525;-70
2023/05/02 09:29:20;;;;;;;28.10;21.97;;;15.30;99.90;;;;;;5027886;28;20445;-71
2023/05/02 09:32:06;;;;;;;34.10;23.07;;;15.20;99.90;;;;;;5027506;28;20416;-70
2023/05/02 09:35:06;;;;;;;32.63;23.53;;;15.10;99.90;;;;;;5026369;28;20855;-73
2023/05/02 09:37:53;;;;;;;34.33;25.20;;;15.20;99.90;;;;;;5026631;28;20568;-74
2023/05/02 09:40:39;;;;;;;30.70;23.07;;;15.20;99.90;;;;;;5032256;28;20901;-73
2023/05/02 09:43:24;;;;;;;30.37;21.93;;;15.30;99.90;;;;;;5043127;28;20429;-73
2023/05/02 09:46:11;;;;;;;31.30;22.77;;;15.30;99.80;;;;;;5037079;28;20424;-73
2023/05/02 09:48:57;;;;;;;33.13;23.90;;;15.30;99.00;;;;;;5032127;28;20400;-73
2023/05/02 09:51:46;;;;;;;36.23;24.07;;;15.30;99.90;;;;;;5041722;28;20441;-73
2023/05/02 09:54:36;;;;;;;32.57;22.07;;;15.40;99.90;;;;;;5036127;28;20431;-73
2023/05/02 09:57:22;;;;;;;35.17;21.70;;;15.40;99.90;;;;;;5032407;28;20444;-73
2023/05/02 10:00:08;;;;;;;27.07;18.77;;;15.50;99.50;;;;;;5043803;28;20918;-73
2023/05/02 10:02:54;;;;;;;26.37;18.17;;;15.50;99.30;;;;;;5041310;28;20435;-73
2023/05/02 10:05:40;;;;;;;23.73;17.23;;;15.70;99.90;;;;;;5030826;28;20975;-73
2023/05/02 10:08:28;;;;;;;24.30;15.53;;;15.70;96.70;;;;;;5031044;28;20451;-73
2023/05/02 10:11:14;;;;;;;27.23;15.30;;;15.60;93.50;;;;;;5032307;28;20771;-74
2023/05/02 10:14:00;;;;;;;24.87;17.10;;;15.60;94.40;;;;;;5035877;28;20518;-74
2023/05/02 10:16:53;;;;;;;23.20;15.43;;;15.70;94.70;;;;;;5024241;28;20494;-73
2023/05/02 10:19:45;;;;;;;25.57;16.50;;;15.70;93.30;;;;;;5042459;28;20399;-73
2023/05/02 10:22:34;;;;;;;22.33;15.90;;;15.70;93.70;;;;;;5040821;28;20465;-73
2023/05/02 10:25:21;;;;;;;20.90;15.50;;;16.00;94.70;;;;;;5035680;28;20524;-73
2023/05/02 10:28:06;;;;;;;22.10;14.20;;;16.20;94.50;;;;;;5036665;28;20419;-73
2023/05/02 10:30:52;;;;;;;24.37;16.37;;;16.50;96.00;;;;;;5048575;28;20557;-74
2023/05/02 10:33:39;;;;;;;26.43;15.33;;;16.70;92.30;;;;;;5040334;28;20556;-74
2023/05/02 10:36:25;;;;;;;22.10;15.57;;;16.90;90.10;;;;;;5035499;28;20455;-74
2023/05/02 10:39:10;;;;;;;23.97;16.00;;;17.20;90.20;;;;;;5038373;28;20430;-73
2023/05/02 10:42:00;;;;;;;25.53;16.23;;;17.30;86.50;;;;;;5039966;28;20607;-73
2023/05/02 10:44:47;;;;;;;25.70;18.13;;;17.30;79.40;;;;;;5034689;28;20433;-73
2023/05/02 10:47:33;;;;;;;23.23;15.83;;;16.90;76.30;;;;;;5032967;28;20450;-74
2023/05/02 10:50:18;;;;;;;22.20;15.70;;;16.90;79.40;;;;;;5041613;28;20477;-73
2023/05/02 10:53:23;;;;;;;25.33;15.50;;;17.10;76.70;;;;;;5039918;28;20429;-73
2023/05/02 10:56:14;;;;;;;25.13;15.07;;;17.30;80.70;;;;;;5030824;28;20497;-73
2023/05/02 10:59:30;;;;;;;23.43;15.37;;;17.50;83.80;;;;;;5027881;28;20434;-74
2023/05/02 11:02:50;;;;;;;20.37;13.83;;;17.60;74.60;;;;;;5041644;28;20843;-73
2023/05/02 11:06:04;;;;;;;18.90;13.63;;;17.60;71.80;;;;;;5026296;28;20959;-74
2023/05/02 11:08:50;;;;;;;21.23;13.40;;;17.20;70.50;;;;;;5036308;28;20904;-73
2023/05/02 11:11:41;;;;;;;17.33;12.60;;;16.90;72.60;;;;;;5037189;28;20504;-74
2023/05/02 11:14:46;;;;;;;21.00;13.70;;;16.90;74.20;;;;;;5041136;28;20785;-73
2023/05/02 11:18:00;;;;;;;19.17;12.90;;;16.90;72.70;;;;;;5038618;28;20494;-74
2023/05/02 11:20:45;;;;;;;17.03;12.40;;;16.80;72.00;;;;;;5037751;28;20402;-74
2023/05/02 11:23:32;;;;;;;20.30;13.27;;;16.80;71.70;;;;;;5036223;28;20490;-73
2023/05/02 11:26:22;;;;;;;23.10;14.07;;;16.80;72.30;;;;;;5036744;28;20600;-73
2023/05/02 11:29:07;;;;;;;18.10;12.10;;;16.90;73.40;;;;;;5042466;28;20932;-74
2023/05/02 11:31:54;;;;;;;18.23;12.80;;;17.10;72.30;;;;;;5043737;28;20474;-74
2023/05/02 11:34:44;;;;;;;19.97;12.57;;;17.40;72.50;;;;;;5032577;28;20424;-73
2023/05/02 11:37:29;;;;;;;17.87;12.70;;;17.80;70.30;;;;;;5038414;28;20458;-73
2023/05/02 11:40:15;;;;;;;20.53;12.07;;;17.70;61.70;;;;;;5043678;28;20409;-73
2023/05/02 11:43:11;;;;;;;17.83;11.90;;;17.50;62.90;;;;;;5043391;28;20480;-74
2023/05/02 11:45:58;;;;;;;18.03;11.80;;;17.30;65.00;;;;;;5032171;28;20449;-73
2023/05/02 11:48:45;;;;;;;18.60;12.00;;;17.20;64.90;;;;;;5041816;28;20841;-73
2023/05/02 11:51:31;;;;;;;20.47;13.00;;;17.00;65.20;;;;;;5031477;28;20942;-73
2023/05/02 11:54:20;;;;;;;16.03;10.40;;;17.00;64.90;;;;;;5037917;28;20577;-74
2023/05/02 11:57:05;;;;;;;19.80;11.20;;;17.10;67.10;;;;;;5036446;28;20488;-73
2023/05/02 11:59:52;;;;;;;16.33;11.20;;;17.30;65.70;;;;;;5042308;28;20507;-74
2023/05/02 12:02:39;;;;;;;15.37;10.13;;;17.40;66.60;;;;;;5020613;28;20434;-74
2023/05/02 12:05:29;;;;;;;16.57;11.30;;;17.60;64.00;;;;;;5030510;28;20442;-73
2023/05/02 12:08:19;;;;;;;19.70;11.33;;;17.90;63.20;;;;;;5034831;28;20938;-73
2023/05/02 12:11:05;;;;;;;14.73;9.67;;;17.90;61.70;;;;;;5044854;28;20460;-73
2023/05/02 12:13:50;;;;;;;12.07;9.80;;;18.00;61.10;;;;;;5035402;28;20455;-73
2023/05/02 12:16:36;;;;;;;15.00;9.70;;;18.30;58.20;;;;;;5026600;28;20445;-73
2023/05/02 12:19:22;;;;;;;16.43;10.80;;;18.50;59.90;;;;;;5029563;28;20439;-73
2023/05/02 12:22:09;;;;;;;14.03;9.40;;;18.70;56.10;;;;;;5030791;28;20467;-73
2023/05/02 12:24:55;;;;;;;14.87;10.70;;;18.60;53.00;;;;;;5030032;28;20450;-74
2023/05/02 12:27:41;;;;;;;15.50;10.43;;;18.60;52.40;;;;;;5030892;28;20467;-73
2023/05/02 12:30:26;;;;;;;14.03;9.97;;;18.20;51.90;;;;;;5028460;28;20446;-74
2023/05/02 12:33:12;;;;;;;20.13;12.67;;;18.30;56.40;;;;;;5024567;28;20528;-73
2023/05/02 12:36:06;;;;;;;14.17;10.30;;;18.50;55.00;;;;;;5027348;28;20513;-74
2023/05/02 12:38:55;;;;;;;13.87;9.37;;;18.80;52.90;;;;;;5028221;28;20458;-74
2023/05/02 12:41:44;;;;;;;14.07;9.00;;;18.90;49.60;;;;;;5030981;28;20502;-74
2023/05/02 12:44:37;;;;;;;14.90;10.80;;;19.00;41.10;;;;;;5023385;28;20409;-74
2023/05/02 12:47:23;;;;;;;12.40;8.97;;;19.00;40.40;;;;;;5027451;28;20462;-73
2023/05/02 12:50:09;;;;;;;13.70;9.33;;;19.30;41.50;;;;;;5028674;28;20443;-74
2023/05/02 12:52:57;;;;;;;12.53;9.20;;;19.40;37.70;;;;;;5031959;28;22858;-73
2023/05/02 12:55:45;;;;;;;14.30;8.33;;;19.60;40.00;;;;;;5029728;28;20456;-74
2023/05/02 12:58:41;;;;;;;11.93;8.47;;;19.80;39.40;;;;;;5029769;28;20503;-74
2023/05/02 13:01:27;;;;;;;13.20;9.23;;;19.80;38.70;;;;;;5023797;28;20460;-74
2023/05/02 13:04:12;;;;;;;11.87;8.10;;;20.00;38.00;;;;;;5026663;28;20958;-74
2023/05/02 13:06:57;;;;;;;11.57;7.13;;;20.10;37.50;;;;;;5022304;28;20478;-74
2023/05/02 13:09:43;;;;;;;10.40;7.23;;;20.00;36.00;;;;;;5023084;28;20451;-74
2023/05/02 13:12:29;;;;;;;14.23;7.37;;;19.80;36.30;;;;;;5026587;28;20964;-74
2023/05/02 13:15:15;;;;;;;12.00;7.40;;;19.50;34.80;;;;;;5029363;28;20438;-74
2023/05/02 13:18:01;;;;;;;16.10;7.83;;;19.60;35.60;;;;;;5029066;28;20833;-74
2023/05/02 13:20:46;;;;;;;8.73;6.87;;;19.90;36.20;;;;;;5028029;28;20455;-74
2023/05/02 13:23:32;;;;;;;7.87;5.70;;;19.80;32.80;;;;;;5027460;28;20509;-74
2023/05/02 13:26:17;;;;;;;11.47;6.67;;;19.80;37.40;;;;;;5033083;28;21184;-74
2023/05/02 13:29:04;;;;;;;9.87;7.27;;;20.10;38.70;;;;;;5030262;28;20562;-74
2023/05/02 13:31:50;;;;;;;10.40;6.17;;;20.00;31.10;;;;;;5025516;28;20587;-74
2023/05/02 13:34:35;;;;;;;8.03;5.93;;;20.40;35.00;;;;;;5027155;28;20530;-74
2023/05/02 13:37:22;;;;;;;11.27;6.60;;;20.80;37.40;;;;;;5034904;28;20483;-74
2023/05/02 13:40:08;;;;;;;8.23;6.17;;;20.70;33.20;;;;;;5031624;28;20566;-74
2023/05/02 13:42:53;;;;;;;11.50;5.87;;;20.40;33.10;;;;;;5021824;28;20446;-74
2023/05/02 13:45:40;;;;;;;9.40;4.93;;;20.00;32.10;;;;;;5029849;28;20428;-74
2023/05/02 13:48:26;;;;;;;13.07;4.60;;;20.00;35.30;;;;;;5029876;28;20808;-74
2023/05/02 13:51:11;;;;;;;6.10;4.50;;;20.00;33.50;;;;;;5027074;28;20490;-74
2023/05/02 13:53:57;;;;;;;6.57;4.53;;;20.20;32.00;;;;;;5025891;28;20563;-73
2023/05/02 13:56:42;;;;;;;5.60;3.33;;;20.30;30.10;;;;;;5029794;28;20513;-73
2023/05/02 13:59:27;;;;;;;5.40;3.50;;;20.60;30.40;;;;;;5030322;28;20435;-73
2023/05/02 14:02:14;;;;;;;8.23;4.27;;;20.90;29.60;;;;;;5029364;28;20455;-74
2023/05/02 14:05:00;;;;;;;7.03;4.10;;;20.90;28.60;;;;;;5029621;28;20458;-74
2023/05/02 14:07:46;;;;;;;4.40;2.90;;;21.10;29.10;;;;;;5021559;28;20986;-74
2023/05/02 14:10:31;;;;;;;7.60;5.33;;;21.40;30.50;;;;;;5029246;28;20812;-74
2023/05/02 14:13:16;;;;;;;9.87;6.60;;;21.40;28.30;;;;;;5025204;28;20452;-74
2023/05/02 14:16:02;;;;;;;14.53;6.70;;;21.20;30.30;;;;;;5025742;28;20443;-74
2023/05/02 14:18:49;;;;;;;9.17;6.30;;;20.60;31.00;;;;;;5028727;28;20466;-74
2023/05/02 14:21:36;;;;;;;10.93;7.40;;;20.40;31.80;;;;;;5027503;28;20461;-74